createdAt,value
2017-04-13T00:00:10.121Z,13.10
2017-04-13T00:01:15.596Z,13.10
2017-04-13T00:02:14.778Z,13.10
2017-04-13T00:03:13.909Z,13.20
2017-04-13T00:04:13.081Z,13.20
2017-04-13T00:05:12.235Z,13.10
2017-04-13T00:06:11.344Z,13.10
2017-04-13T00:07:10.495Z,13.10
2017-04-13T00:08:09.668Z,13.20
2017-04-13T00:09:08.832Z,13.20
2017-04-13T00:10:07.956Z,13.10
2017-04-13T00:11:07.100Z,13.10
2017-04-13T00:12:06.261Z,13.10
2017-04-13T00:13:05.381Z,13.10
2017-04-13T00:14:04.512Z,13.10
2017-04-13T00:15:03.690Z,13.10
2017-04-13T00:16:02.807Z,13.10
2017-04-13T00:17:02.668Z,13.10
2017-04-13T00:18:01.803Z,13.20
2017-04-13T00:19:01.656Z,13.10
2017-04-13T00:20:00.768Z,13.10
2017-04-13T00:20:59.940Z,13.10
2017-04-13T00:21:59.056Z,13.10
2017-04-13T00:22:58.937Z,13.10
2017-04-13T00:23:58.055Z,13.10
2017-04-13T00:24:57.260Z,13.10
2017-04-13T00:25:56.383Z,13.00
2017-04-13T00:26:55.503Z,13.00
2017-04-13T00:27:55.440Z,13.00
2017-04-13T00:28:54.812Z,13.00
2017-04-13T00:29:54.672Z,13.10
2017-04-13T00:30:53.784Z,13.00
2017-04-13T00:31:52.896Z,13.00
2017-04-13T00:32:52.040Z,13.00
2017-04-13T00:33:51.177Z,13.00
2017-04-13T00:34:50.297Z,13.00
2017-04-13T00:35:49.424Z,13.00
2017-04-13T00:36:48.555Z,13.00
2017-04-13T00:37:47.677Z,13.00
2017-04-13T00:38:46.860Z,13.00
2017-04-13T00:39:45.975Z,13.00
2017-04-13T00:40:45.829Z,13.00
2017-04-13T00:41:44.948Z,12.90
2017-04-13T00:42:44.056Z,13.00
2017-04-13T00:43:43.167Z,13.00
2017-04-13T00:44:42.300Z,13.00
2017-04-13T00:45:41.418Z,13.00
2017-04-13T00:46:40.551Z,13.00
2017-04-13T00:47:39.684Z,13.00
2017-04-13T00:48:38.805Z,13.00
2017-04-13T00:49:37.964Z,13.00
2017-04-13T00:50:43.892Z,13.00
2017-04-13T00:51:43.748Z,13.00
2017-04-13T00:52:42.862Z,13.10
2017-04-13T00:53:41.992Z,13.00
2017-04-13T00:54:41.149Z,13.00
2017-04-13T00:55:41.004Z,13.00
2017-04-13T00:56:40.177Z,13.00
2017-04-13T00:57:39.297Z,13.00
2017-04-13T00:58:38.426Z,13.00
2017-04-13T00:59:37.550Z,13.00
2017-04-13T01:00:36.679Z,13.10
2017-04-13T01:01:35.817Z,13.00
2017-04-13T01:02:34.987Z,13.00
2017-04-13T01:03:34.110Z,13.10
2017-04-13T01:04:33.412Z,13.10
2017-04-13T01:05:32.587Z,13.10
2017-04-13T01:06:31.708Z,13.10
2017-04-13T01:07:31.568Z,13.10
2017-04-13T01:08:30.696Z,13.10
2017-04-13T01:09:30.585Z,13.10
2017-04-13T01:10:29.717Z,13.10
2017-04-13T01:11:28.866Z,13.10
2017-04-13T01:12:32.204Z,13.10
2017-04-13T01:13:31.316Z,13.10
2017-04-13T01:14:30.423Z,13.10
2017-04-13T01:15:30.322Z,13.10
2017-04-13T01:16:29.431Z,13.10
2017-04-13T01:17:28.549Z,13.20
2017-04-13T01:18:27.672Z,13.20
2017-04-13T01:19:26.795Z,13.10
2017-04-13T01:20:25.929Z,13.20
2017-04-13T01:21:25.085Z,13.10
2017-04-13T01:22:24.356Z,13.10
2017-04-13T01:23:23.479Z,13.20
2017-04-13T01:24:22.616Z,13.20
2017-04-13T01:25:22.515Z,13.20
2017-04-13T01:26:22.419Z,13.10
2017-04-13T01:27:22.297Z,13.10
2017-04-13T01:28:21.440Z,13.10
2017-04-13T01:29:20.572Z,13.10
2017-04-13T01:30:19.720Z,13.10
2017-04-13T01:31:19.111Z,13.10
2017-04-13T01:32:18.241Z,13.10
2017-04-13T01:33:17.391Z,13.10
2017-04-13T01:34:16.513Z,13.10
2017-04-13T01:35:15.650Z,13.10
2017-04-13T01:36:14.789Z,13.10
2017-04-13T01:37:13.936Z,13.10
2017-04-13T01:38:13.108Z,13.10
2017-04-13T01:39:12.244Z,13.10
2017-04-13T01:40:11.388Z,13.10
2017-04-13T01:41:10.528Z,13.10
2017-04-13T01:42:09.681Z,13.10
2017-04-13T01:43:08.863Z,13.10
2017-04-13T01:44:08.008Z,13.00
2017-04-13T01:45:07.141Z,13.00
2017-04-13T01:46:06.277Z,13.00
2017-04-13T01:47:06.172Z,13.00
2017-04-13T01:48:06.042Z,13.00
2017-04-13T01:49:05.188Z,13.10
2017-04-13T01:50:04.328Z,13.10
2017-04-13T01:51:03.453Z,13.10
2017-04-13T01:52:02.582Z,13.10
2017-04-13T01:53:01.829Z,13.10
2017-04-13T01:54:00.969Z,13.10
2017-04-13T01:55:00.095Z,13.10
2017-04-13T01:55:59.224Z,13.00
2017-04-13T01:56:58.354Z,13.10
2017-04-13T01:57:57.540Z,13.10
2017-04-13T01:58:57.416Z,13.10
2017-04-13T01:59:56.552Z,13.10
2017-04-13T02:00:55.688Z,13.10
2017-04-13T02:01:54.816Z,13.10
2017-04-13T02:02:54.241Z,13.10
2017-04-13T02:03:53.583Z,13.10
2017-04-13T02:04:52.707Z,13.10
2017-04-13T02:05:51.869Z,13.10
2017-04-13T02:06:51.743Z,13.10
2017-04-13T02:07:50.881Z,13.10
2017-04-13T02:08:50.032Z,13.10
2017-04-13T02:09:49.907Z,13.10
2017-04-13T02:10:49.032Z,13.10
2017-04-13T02:11:48.936Z,13.10
2017-04-13T02:12:48.816Z,13.10
2017-04-13T02:13:47.989Z,13.10
2017-04-13T02:14:47.141Z,13.10
2017-04-13T02:15:47.832Z,13.10
2017-04-13T02:16:47.757Z,13.10
2017-04-13T02:17:46.892Z,13.10
2017-04-13T02:18:46.048Z,13.00
2017-04-13T02:19:45.175Z,13.00
2017-04-13T02:20:44.308Z,13.00
2017-04-13T02:21:43.436Z,13.00
2017-04-13T02:22:42.569Z,13.00
2017-04-13T02:23:41.736Z,13.00
2017-04-13T02:24:41.668Z,13.00
2017-04-13T02:25:40.787Z,13.00
2017-04-13T02:26:39.944Z,13.00
2017-04-13T02:27:39.081Z,13.00
2017-04-13T02:28:38.224Z,13.00
2017-04-13T02:29:37.378Z,13.00
2017-04-13T02:30:37.259Z,13.00
2017-04-13T02:31:36.476Z,13.10
2017-04-13T02:32:35.609Z,13.10
2017-04-13T02:33:34.751Z,13.10
2017-04-13T02:34:33.935Z,13.00
2017-04-13T02:35:33.800Z,13.00
2017-04-13T02:36:32.944Z,13.10
2017-04-13T02:37:32.084Z,13.00
2017-04-13T02:38:31.382Z,13.00
2017-04-13T02:39:30.529Z,13.00
2017-04-13T02:40:29.672Z,13.00
2017-04-13T02:41:29.548Z,13.00
2017-04-13T02:42:28.665Z,13.00
2017-04-13T02:43:28.043Z,13.00
2017-04-13T02:44:27.212Z,13.00
2017-04-13T02:45:26.369Z,13.00
2017-04-13T02:46:25.496Z,13.00
2017-04-13T02:47:24.652Z,13.00
2017-04-13T02:48:23.768Z,13.00
2017-04-13T02:49:22.908Z,13.00
2017-04-13T02:50:22.061Z,13.00
2017-04-13T02:51:21.186Z,13.00
2017-04-13T02:52:20.308Z,13.00
2017-04-13T02:53:19.451Z,13.00
2017-04-13T02:54:18.576Z,13.00
2017-04-13T02:55:17.691Z,13.00
2017-04-13T02:56:16.882Z,13.00
2017-04-13T02:57:15.995Z,13.00
2017-04-13T02:58:15.109Z,12.90
2017-04-13T02:59:14.224Z,12.90
2017-04-13T03:00:14.156Z,12.90
2017-04-13T03:01:13.561Z,12.90
2017-04-13T03:02:12.676Z,12.90
2017-04-13T03:03:11.800Z,12.90
2017-04-13T03:04:10.921Z,12.90
2017-04-13T03:05:10.033Z,12.90
2017-04-13T03:06:09.137Z,12.90
2017-04-13T03:07:08.303Z,12.90
2017-04-13T03:08:07.417Z,12.90
2017-04-13T03:09:07.289Z,12.80
2017-04-13T03:10:06.416Z,12.80
2017-04-13T03:11:06.260Z,12.80
2017-04-13T03:12:05.396Z,12.90
2017-04-13T03:13:04.516Z,12.90
2017-04-13T03:14:03.637Z,12.90
2017-04-13T03:15:02.777Z,12.90
2017-04-13T03:16:01.998Z,12.90
2017-04-13T03:17:01.108Z,12.90
2017-04-13T03:18:00.268Z,12.80
2017-04-13T03:18:59.413Z,12.80
2017-04-13T03:19:59.276Z,12.80
2017-04-13T03:20:58.396Z,12.80
2017-04-13T03:21:58.247Z,12.80
2017-04-13T03:22:57.389Z,12.80
2017-04-13T03:23:57.245Z,12.80
2017-04-13T03:24:56.389Z,12.80
2017-04-13T03:25:55.511Z,12.80
2017-04-13T03:26:54.635Z,12.80
2017-04-13T03:27:53.764Z,12.80
2017-04-13T03:28:52.909Z,12.80
2017-04-13T03:29:52.032Z,12.80
2017-04-13T03:30:51.177Z,12.80
2017-04-13T03:31:50.294Z,12.80
2017-04-13T03:32:49.452Z,12.80
2017-04-13T03:33:48.575Z,12.80
2017-04-13T03:34:47.691Z,12.80
2017-04-13T03:35:46.804Z,12.80
2017-04-13T03:36:45.928Z,12.80
2017-04-13T03:37:45.056Z,12.70
2017-04-13T03:38:44.234Z,12.70
2017-04-13T03:39:43.332Z,12.70
2017-04-13T03:40:42.460Z,12.70
2017-04-13T03:41:42.318Z,12.70
2017-04-13T03:42:41.511Z,12.70
2017-04-13T03:43:40.648Z,12.70
2017-04-13T03:44:39.793Z,12.70
2017-04-13T03:45:38.928Z,12.70
2017-04-13T03:46:38.048Z,12.60
2017-04-13T03:47:37.161Z,12.60
2017-04-13T03:48:36.596Z,12.60
2017-04-13T03:49:35.732Z,12.60
2017-04-13T03:50:34.953Z,12.60
2017-04-13T03:51:34.095Z,12.60
2017-04-13T03:52:33.256Z,12.60
2017-04-13T03:53:32.362Z,12.50
2017-04-13T03:54:31.483Z,12.60
2017-04-13T03:55:31.360Z,12.60
2017-04-13T03:56:30.493Z,12.50
2017-04-13T03:57:29.611Z,12.50
2017-04-13T03:58:28.723Z,12.50
2017-04-13T03:59:28.187Z,12.40
2017-04-13T04:00:27.394Z,12.40
2017-04-13T04:01:26.493Z,12.40
2017-04-13T04:02:25.601Z,12.40
2017-04-13T04:03:25.456Z,12.30
2017-04-13T04:04:24.574Z,12.40
2017-04-13T04:05:23.705Z,12.30
2017-04-13T04:06:22.826Z,12.30
2017-04-13T04:07:22.004Z,12.30
2017-04-13T04:08:21.136Z,12.30
2017-04-13T04:09:21.044Z,12.30
2017-04-13T04:10:21.204Z,12.30
2017-04-13T04:11:20.364Z,12.30
2017-04-13T04:12:19.482Z,12.20
2017-04-13T04:13:18.589Z,12.20
2017-04-13T04:14:17.707Z,12.20
2017-04-13T04:15:16.829Z,12.20
2017-04-13T04:16:15.991Z,12.10
2017-04-13T04:17:15.112Z,12.20
2017-04-13T04:18:14.225Z,12.20
2017-04-13T04:19:13.342Z,12.10
2017-04-13T04:20:12.464Z,12.10
2017-04-13T04:21:11.612Z,12.00
2017-04-13T04:22:10.793Z,12.10
2017-04-13T04:23:09.920Z,12.00
2017-04-13T04:24:09.044Z,12.00
2017-04-13T04:25:08.164Z,12.00
2017-04-13T04:26:07.279Z,12.00
2017-04-13T04:27:06.412Z,11.90
2017-04-13T04:28:06.297Z,11.90
2017-04-13T04:29:05.468Z,11.90
2017-04-13T04:30:04.600Z,11.90
2017-04-13T04:31:03.772Z,11.90
2017-04-13T04:32:03.677Z,11.90
2017-04-13T04:33:03.539Z,11.90
2017-04-13T04:34:02.665Z,11.90
2017-04-13T04:35:02.532Z,11.90
2017-04-13T04:36:01.656Z,11.90
2017-04-13T04:37:01.522Z,11.80
2017-04-13T04:38:00.660Z,11.90
2017-04-13T04:38:59.789Z,11.80
2017-04-13T04:39:58.912Z,11.80
2017-04-13T04:40:58.035Z,11.80
2017-04-13T04:41:57.165Z,11.80
2017-04-13T04:42:56.629Z,11.80
2017-04-13T04:43:55.772Z,11.80
2017-04-13T04:44:54.961Z,11.80
2017-04-13T04:45:54.828Z,11.80
2017-04-13T04:46:53.952Z,11.90
2017-04-13T04:47:53.820Z,11.80
2017-04-13T04:48:52.960Z,11.80
2017-04-13T04:49:52.116Z,11.80
2017-04-13T04:50:51.255Z,11.70
2017-04-13T04:51:50.398Z,11.70
2017-04-13T04:52:50.268Z,11.70
2017-04-13T04:53:49.736Z,11.70
2017-04-13T04:54:48.884Z,11.60
2017-04-13T04:55:48.760Z,11.60
2017-04-13T04:56:47.905Z,11.60
2017-04-13T04:57:47.027Z,11.60
2017-04-13T04:58:46.164Z,11.60
2017-04-13T04:59:45.319Z,11.60
2017-04-13T05:00:44.540Z,11.60
2017-04-13T05:01:43.705Z,11.60
2017-04-13T05:02:43.583Z,11.50
2017-04-13T05:03:42.719Z,11.50
2017-04-13T05:04:41.861Z,11.50
2017-04-13T05:05:41.015Z,11.50
2017-04-13T05:06:40.296Z,11.50
2017-04-13T05:07:39.440Z,11.50
2017-04-13T05:08:39.332Z,11.50
2017-04-13T05:09:38.500Z,11.50
2017-04-13T05:10:37.645Z,11.60
2017-04-13T05:11:36.980Z,11.60
2017-04-13T05:12:36.116Z,11.60
2017-04-13T05:13:35.263Z,11.60
2017-04-13T05:14:34.407Z,11.60
2017-04-13T05:15:33.604Z,11.60
2017-04-13T05:16:32.737Z,11.50
2017-04-13T05:17:31.916Z,11.50
2017-04-13T05:19:30.475Z,11.40
2017-04-13T05:20:29.617Z,11.40
2017-04-13T05:21:28.757Z,11.40
2017-04-13T05:22:27.936Z,11.40
2017-04-13T05:23:27.060Z,11.50
2017-04-13T05:24:26.944Z,11.40
2017-04-13T05:25:26.716Z,11.40
2017-04-13T05:26:25.856Z,11.40
2017-04-13T05:27:25.008Z,11.50
2017-04-13T05:28:24.148Z,11.40
2017-04-13T05:29:23.279Z,11.40
2017-04-13T05:30:22.416Z,11.40
2017-04-13T05:31:21.563Z,11.40
2017-04-13T05:32:20.719Z,11.40
2017-04-13T05:33:20.448Z,11.40
2017-04-13T05:34:19.592Z,11.40
2017-04-13T05:35:18.795Z,11.40
2017-04-13T05:36:17.948Z,11.40
2017-04-13T05:37:17.117Z,11.40
2017-04-13T05:38:17.038Z,11.40
2017-04-13T05:39:16.172Z,11.40
2017-04-13T05:40:15.300Z,11.50
2017-04-13T05:41:14.465Z,11.50
2017-04-13T05:42:13.614Z,11.40
2017-04-13T05:43:12.783Z,11.40
2017-04-13T05:44:11.926Z,11.40
2017-04-13T05:45:11.060Z,11.40
2017-04-13T05:46:10.195Z,11.50
2017-04-13T05:47:09.328Z,11.40
2017-04-13T05:48:08.474Z,11.40
2017-04-13T05:49:07.657Z,11.40
2017-04-13T05:50:06.793Z,11.50
2017-04-13T05:51:05.936Z,11.50
2017-04-13T05:52:05.063Z,11.50
2017-04-13T05:53:04.195Z,11.50
2017-04-13T05:54:03.332Z,11.50
2017-04-13T05:55:02.487Z,11.50
2017-04-13T05:56:02.356Z,11.50
2017-04-13T05:57:01.521Z,11.50
2017-04-13T05:58:00.667Z,11.50
2017-04-13T05:59:00.558Z,11.50
2017-04-13T05:59:59.700Z,11.50
2017-04-13T06:00:58.841Z,11.50
2017-04-13T06:01:58.720Z,11.50
2017-04-13T06:02:57.852Z,11.50
2017-04-13T06:03:56.995Z,11.40
2017-04-13T06:04:56.292Z,11.40
2017-04-13T06:05:55.445Z,11.40
2017-04-13T06:06:54.596Z,11.40
2017-04-13T06:07:53.726Z,11.40
2017-04-13T06:08:52.862Z,11.30
2017-04-13T06:09:51.999Z,11.40
2017-04-13T06:10:51.148Z,11.40
2017-04-13T06:11:50.276Z,11.40
2017-04-13T06:12:49.419Z,11.40
2017-04-13T06:13:48.539Z,11.40
2017-04-13T06:14:47.693Z,11.30
2017-04-13T06:15:46.856Z,11.30
2017-04-13T06:16:46.024Z,11.40
2017-04-13T06:17:45.175Z,11.40
2017-04-13T06:18:44.384Z,11.40
2017-04-13T06:19:43.536Z,11.40
2017-04-13T06:20:43.176Z,11.50
2017-04-13T06:21:42.322Z,11.40
2017-04-13T06:22:41.481Z,11.50
2017-04-13T06:23:41.361Z,11.50
2017-04-13T06:24:40.497Z,11.50
2017-04-13T06:25:39.764Z,11.50
2017-04-13T06:26:38.912Z,11.50
2017-04-13T06:27:38.035Z,11.40
2017-04-13T06:28:37.180Z,11.50
2017-04-13T06:29:36.317Z,11.50
2017-04-13T06:30:35.521Z,11.50
2017-04-13T06:31:34.652Z,11.50
2017-04-13T06:32:33.783Z,11.50
2017-04-13T06:33:32.927Z,11.50
2017-04-13T06:34:32.125Z,11.50
2017-04-13T06:35:31.244Z,11.50
2017-04-13T06:36:30.402Z,11.60
2017-04-13T06:37:30.276Z,11.60
2017-04-13T06:38:29.404Z,11.60
2017-04-13T06:39:28.656Z,11.60
2017-04-13T06:40:27.803Z,11.70
2017-04-13T06:41:26.975Z,11.70
2017-04-13T06:42:26.121Z,11.80
2017-04-13T06:43:25.263Z,11.80
2017-04-13T06:44:24.400Z,11.80
2017-04-13T06:45:23.553Z,11.80
2017-04-13T06:46:22.683Z,11.80
2017-04-13T06:47:21.944Z,11.80
2017-04-13T06:48:21.076Z,11.70
2017-04-13T06:49:20.212Z,11.70
2017-04-13T06:50:19.484Z,11.70
2017-04-13T06:51:18.646Z,11.70
2017-04-13T06:52:17.779Z,11.60
2017-04-13T06:53:16.908Z,11.60
2017-04-13T06:54:16.106Z,11.60
2017-04-13T06:55:15.233Z,11.60
2017-04-13T06:56:14.372Z,11.60
2017-04-13T06:57:13.487Z,11.70
2017-04-13T06:58:12.595Z,11.70
2017-04-13T06:59:11.719Z,11.70
2017-04-13T07:00:11.575Z,11.70
2017-04-13T07:01:10.764Z,11.70
2017-04-13T07:02:09.916Z,11.70
2017-04-13T07:03:09.084Z,11.70
2017-04-13T07:04:08.976Z,11.70
2017-04-13T07:05:08.106Z,11.70
2017-04-13T07:06:07.221Z,11.60
2017-04-13T07:07:06.353Z,11.70
2017-04-13T07:08:05.472Z,11.70
2017-04-13T07:09:05.340Z,11.70
2017-04-13T07:10:04.505Z,11.70
2017-04-13T07:11:03.612Z,11.80
2017-04-13T07:12:02.757Z,11.70
2017-04-13T07:13:01.896Z,11.70
2017-04-13T07:14:01.017Z,11.70
2017-04-13T07:15:00.380Z,11.70
2017-04-13T07:15:59.496Z,11.70
2017-04-13T07:16:58.619Z,11.70
2017-04-13T07:17:57.752Z,11.80
2017-04-13T07:18:56.861Z,11.80
2017-04-13T07:19:55.984Z,11.80
2017-04-13T07:20:55.112Z,11.80
2017-04-13T07:21:54.261Z,11.80
2017-04-13T07:22:53.412Z,11.80
2017-04-13T07:23:52.532Z,11.90
2017-04-13T07:24:51.692Z,11.80
2017-04-13T07:25:50.805Z,11.80
2017-04-13T07:26:50.670Z,11.80
2017-04-13T07:27:50.037Z,11.80
2017-04-13T07:28:49.144Z,11.80
2017-04-13T07:29:48.272Z,11.80
2017-04-13T07:30:48.135Z,11.80
2017-04-13T07:31:47.260Z,11.90
2017-04-13T07:32:47.132Z,11.90
2017-04-13T07:33:46.265Z,11.90
2017-04-13T07:34:45.396Z,11.90
2017-04-13T07:35:44.532Z,11.90
2017-04-13T07:36:43.672Z,11.90
2017-04-13T07:37:42.785Z,12.00
2017-04-13T07:38:42.939Z,12.00
2017-04-13T07:39:42.064Z,12.00
2017-04-13T07:40:41.193Z,12.00
2017-04-13T07:41:40.322Z,12.00
2017-04-13T07:42:39.437Z,12.00
2017-04-13T07:43:38.584Z,12.10
2017-04-13T07:44:37.726Z,12.00
2017-04-13T07:45:36.869Z,12.10
2017-04-13T07:46:35.995Z,12.10
2017-04-13T07:47:35.852Z,12.10
2017-04-13T07:48:34.980Z,12.10
2017-04-13T07:49:34.891Z,12.10
2017-04-13T07:50:34.018Z,12.20
2017-04-13T07:51:33.124Z,12.20
2017-04-13T07:52:32.245Z,12.20
2017-04-13T07:53:32.112Z,12.10
2017-04-13T07:54:31.236Z,12.10
2017-04-13T07:55:30.385Z,12.00
2017-04-13T07:56:29.516Z,12.00
2017-04-13T07:57:28.638Z,12.00
2017-04-13T07:58:27.752Z,11.90
2017-04-13T07:59:26.881Z,11.90
2017-04-13T08:00:26.024Z,11.90
2017-04-13T08:01:25.152Z,11.80
2017-04-13T08:02:24.308Z,11.80
2017-04-13T08:03:23.413Z,11.90
2017-04-13T08:04:22.528Z,11.90
2017-04-13T08:05:21.645Z,12.00
2017-04-13T08:06:20.800Z,12.00
2017-04-13T08:07:19.928Z,12.10
2017-04-13T08:08:19.040Z,12.00
2017-04-13T08:09:18.896Z,12.00
2017-04-13T08:10:18.007Z,12.00
2017-04-13T08:11:17.169Z,12.00
2017-04-13T08:12:16.296Z,12.00
2017-04-13T08:13:16.168Z,12.00
2017-04-13T08:14:15.287Z,12.10
2017-04-13T08:15:15.255Z,12.10
2017-04-13T08:16:14.364Z,12.20
2017-04-13T08:17:13.544Z,12.20
2017-04-13T08:18:12.659Z,12.20
2017-04-13T08:19:11.780Z,12.20
2017-04-13T08:20:10.908Z,12.20
2017-04-13T08:21:10.032Z,12.20
2017-04-13T08:22:09.181Z,12.20
2017-04-13T08:23:08.293Z,12.20
2017-04-13T08:24:07.411Z,12.10
2017-04-13T08:25:06.536Z,12.10
2017-04-13T08:26:05.667Z,12.10
2017-04-13T08:27:04.804Z,12.20
2017-04-13T08:28:03.923Z,12.20
2017-04-13T08:29:03.042Z,12.20
2017-04-13T08:30:02.180Z,12.30
2017-04-13T08:31:02.044Z,12.30
2017-04-13T08:32:01.151Z,12.40
2017-04-13T08:33:00.301Z,12.40
2017-04-13T08:33:59.417Z,12.40
2017-04-13T08:34:58.528Z,12.50
2017-04-13T08:35:58.396Z,12.60
2017-04-13T08:36:57.528Z,12.60
2017-04-13T08:37:56.669Z,12.70
2017-04-13T08:38:55.784Z,12.70
2017-04-13T08:39:55.647Z,12.70
2017-04-13T08:40:54.764Z,12.80
2017-04-13T08:41:53.880Z,12.90
2017-04-13T08:42:53.072Z,12.80
2017-04-13T08:43:52.188Z,12.90
2017-04-13T08:44:51.303Z,12.90
2017-04-13T08:45:50.408Z,12.90
2017-04-13T08:46:50.270Z,12.90
2017-04-13T08:47:49.396Z,12.90
2017-04-13T08:48:49.282Z,12.90
2017-04-13T08:49:48.427Z,12.90
2017-04-13T08:50:47.640Z,12.90
2017-04-13T08:51:46.792Z,12.90
2017-04-13T08:52:45.913Z,12.90
2017-04-13T08:53:45.396Z,12.90
2017-04-13T08:54:44.528Z,12.90
2017-04-13T08:55:44.383Z,12.90
2017-04-13T08:56:43.503Z,12.90
2017-04-13T08:57:42.631Z,12.90
2017-04-13T08:58:41.795Z,12.90
2017-04-13T08:59:40.912Z,12.90
2017-04-13T09:00:40.028Z,12.90
2017-04-13T09:01:39.192Z,13.00
2017-04-13T09:02:38.308Z,13.00
2017-04-13T09:03:37.481Z,13.10
2017-04-13T09:04:36.623Z,13.10
2017-04-13T09:05:35.747Z,13.20
2017-04-13T09:06:34.869Z,13.30
2017-04-13T09:07:34.724Z,13.40
2017-04-13T09:08:33.840Z,13.40
2017-04-13T09:09:32.985Z,13.40
2017-04-13T09:10:32.121Z,13.40
2017-04-13T09:11:31.240Z,13.40
2017-04-13T09:12:30.364Z,13.40
2017-04-13T09:13:29.527Z,13.40
2017-04-13T09:14:28.639Z,13.40
2017-04-13T09:15:27.799Z,13.40
2017-04-13T09:16:26.949Z,13.30
2017-04-13T09:17:26.829Z,13.10
2017-04-13T09:18:25.956Z,13.10
2017-04-13T09:19:25.079Z,13.10
2017-04-13T09:20:24.188Z,13.10
2017-04-13T09:21:23.320Z,13.10
2017-04-13T09:22:22.445Z,13.00
2017-04-13T09:23:21.564Z,13.00
2017-04-13T09:24:20.676Z,12.90
2017-04-13T09:25:19.824Z,12.90
2017-04-13T09:26:18.966Z,12.80
2017-04-13T09:27:18.100Z,12.80
2017-04-13T09:28:17.216Z,12.70
2017-04-13T09:29:16.337Z,12.70
2017-04-13T09:30:15.456Z,12.80
2017-04-13T09:31:14.588Z,12.70
2017-04-13T09:32:13.744Z,12.80
2017-04-13T09:33:13.605Z,12.80
2017-04-13T09:34:12.776Z,12.80
2017-04-13T09:35:11.896Z,12.80
2017-04-13T09:36:11.000Z,12.90
2017-04-13T09:37:10.144Z,12.90
2017-04-13T09:38:09.317Z,12.90
2017-04-13T09:39:08.456Z,13.00
2017-04-13T09:40:07.584Z,13.10
2017-04-13T09:41:06.717Z,13.10
2017-04-13T09:42:05.833Z,13.20
2017-04-13T09:43:05.708Z,13.30
2017-04-13T09:44:04.846Z,13.50
2017-04-13T09:45:03.970Z,13.60
2017-04-13T09:46:03.079Z,13.60
2017-04-13T09:47:02.200Z,13.60
2017-04-13T09:48:01.612Z,13.70
2017-04-13T09:49:00.804Z,13.70
2017-04-13T09:49:59.920Z,13.70
2017-04-13T09:50:59.040Z,13.80
2017-04-13T09:51:58.171Z,13.70
2017-04-13T09:52:57.304Z,13.80
2017-04-13T09:53:57.172Z,13.70
2017-04-13T09:54:56.292Z,13.70
2017-04-13T09:55:56.169Z,13.60
2017-04-13T09:56:55.292Z,13.60
2017-04-13T09:57:54.408Z,13.60
2017-04-13T09:58:53.555Z,13.60
2017-04-13T09:59:52.681Z,13.50
2017-04-13T10:00:51.804Z,13.50
2017-04-13T10:01:51.080Z,13.50
2017-04-13T10:02:50.188Z,13.50
2017-04-13T10:03:49.307Z,13.50
2017-04-13T10:04:48.456Z,13.40
2017-04-13T10:05:47.570Z,13.40
2017-04-13T10:06:46.763Z,13.40
2017-04-13T10:07:46.685Z,13.40
2017-04-13T10:08:45.804Z,13.50
2017-04-13T10:09:44.953Z,13.50
2017-04-13T10:10:44.102Z,13.50
2017-04-13T10:11:43.218Z,13.50
2017-04-13T10:12:42.336Z,13.40
2017-04-13T10:13:41.457Z,13.40
2017-04-13T10:14:40.573Z,13.40
2017-04-13T10:15:39.720Z,13.40
2017-04-13T10:16:38.855Z,13.40
2017-04-13T10:17:37.984Z,13.40
2017-04-13T10:18:37.109Z,13.40
2017-04-13T10:19:36.233Z,13.40
2017-04-13T10:20:35.436Z,13.40
2017-04-13T10:21:34.553Z,13.40
2017-04-13T10:22:34.410Z,13.40
2017-04-13T10:23:33.520Z,13.40
2017-04-13T10:24:32.641Z,13.40
2017-04-13T10:25:32.348Z,13.50
2017-04-13T10:26:31.491Z,13.60
2017-04-13T10:27:30.632Z,13.60
2017-04-13T10:28:29.741Z,13.70
2017-04-13T10:29:28.852Z,13.80
2017-04-13T10:30:27.969Z,13.80
2017-04-13T10:31:27.116Z,13.90
2017-04-13T10:32:26.240Z,14.00
2017-04-13T10:33:25.360Z,14.10
2017-04-13T10:34:24.469Z,14.20
2017-04-13T10:35:23.657Z,14.20
2017-04-13T10:36:22.804Z,14.30
2017-04-13T10:37:21.940Z,14.40
2017-04-13T10:38:21.060Z,14.40
2017-04-13T10:39:20.208Z,14.50
2017-04-13T10:40:19.328Z,14.50
2017-04-13T10:41:18.448Z,14.50
2017-04-13T10:42:17.608Z,14.60
2017-04-13T10:43:16.769Z,14.60
2017-04-13T10:44:15.916Z,14.50
2017-04-13T10:45:15.048Z,14.50
2017-04-13T10:46:14.176Z,14.50
2017-04-13T10:47:13.316Z,14.60
2017-04-13T10:48:12.440Z,14.70
2017-04-13T10:49:11.588Z,14.70
2017-04-13T10:50:10.772Z,14.70
2017-04-13T10:51:09.897Z,14.60
2017-04-13T10:52:09.047Z,14.50
2017-04-13T10:53:08.176Z,14.60
2017-04-13T10:54:07.333Z,14.50
2017-04-13T10:55:06.467Z,14.50
2017-04-13T10:56:05.588Z,14.50
2017-04-13T10:57:04.717Z,14.60
2017-04-13T10:58:03.860Z,14.60
2017-04-13T10:59:02.970Z,14.60
2017-04-13T11:00:02.093Z,14.60
2017-04-13T11:01:01.213Z,14.50
2017-04-13T11:02:00.328Z,14.50
2017-04-13T11:03:00.466Z,14.50
2017-04-13T11:03:59.581Z,14.50
2017-04-13T11:04:58.694Z,14.40
2017-04-13T11:05:58.552Z,14.40
2017-04-13T11:06:57.659Z,14.40
2017-04-13T11:07:56.772Z,14.30
2017-04-13T11:08:56.657Z,14.30
2017-04-13T11:09:55.808Z,14.20
2017-04-13T11:10:54.927Z,14.20
2017-04-13T11:11:54.055Z,14.20
2017-04-13T11:12:53.185Z,14.20
2017-04-13T11:13:52.661Z,14.20
2017-04-13T11:14:51.788Z,14.30
2017-04-13T11:15:50.932Z,14.40
2017-04-13T11:16:50.079Z,14.50
2017-04-13T11:17:53.873Z,14.60
2017-04-13T11:18:53.017Z,14.70
2017-04-13T11:19:52.208Z,14.80
2017-04-13T11:20:51.333Z,14.90
2017-04-13T11:21:50.449Z,14.90
2017-04-13T11:22:49.580Z,14.80
2017-04-13T11:23:48.704Z,14.80
2017-04-13T11:24:47.848Z,14.80
2017-04-13T11:25:46.964Z,14.80
2017-04-13T11:26:46.083Z,14.60
2017-04-13T11:27:45.188Z,14.50
2017-04-13T11:28:44.304Z,14.40
2017-04-13T11:29:43.452Z,14.40
2017-04-13T11:30:42.560Z,14.40
2017-04-13T11:31:41.678Z,14.40
2017-04-13T11:32:41.540Z,14.50
2017-04-13T11:33:40.660Z,14.50
2017-04-13T11:34:39.764Z,14.50
2017-04-13T11:35:38.908Z,14.50
2017-04-13T11:36:38.038Z,14.50
2017-04-13T11:37:37.163Z,14.60
2017-04-13T11:38:36.281Z,14.60
2017-04-13T11:39:35.406Z,14.70
2017-04-13T11:40:34.550Z,14.70
2017-04-13T11:41:33.660Z,14.70
2017-04-13T11:42:32.777Z,14.70
2017-04-13T11:43:31.896Z,14.80
2017-04-13T11:44:31.016Z,14.80
2017-04-13T11:45:30.380Z,14.90
2017-04-13T11:46:29.519Z,15.00
2017-04-13T11:47:28.680Z,15.00
2017-04-13T11:48:27.792Z,15.00
2017-04-13T11:49:26.941Z,15.00
2017-04-13T11:50:26.798Z,15.00
2017-04-13T11:51:25.931Z,15.00
2017-04-13T11:52:25.793Z,14.90
2017-04-13T11:53:24.900Z,14.90
2017-04-13T11:54:24.178Z,14.90
2017-04-13T11:55:23.297Z,14.90
2017-04-13T11:56:23.166Z,14.90
2017-04-13T11:57:22.284Z,14.90
2017-04-13T11:58:22.157Z,14.80
2017-04-13T11:59:21.272Z,14.80
2017-04-13T12:00:21.125Z,14.80
2017-04-13T12:01:20.224Z,14.60
2017-04-13T12:02:19.345Z,14.50
2017-04-13T12:03:18.453Z,14.40
2017-04-13T12:04:17.565Z,14.30
2017-04-13T12:05:16.673Z,14.30
2017-04-13T12:06:15.785Z,14.20
2017-04-13T12:07:15.005Z,14.20
2017-04-13T12:08:14.116Z,14.20
2017-04-13T12:09:13.228Z,14.20
2017-04-13T12:10:12.349Z,14.30
2017-04-13T12:11:11.476Z,14.30
2017-04-13T12:12:10.608Z,14.40
2017-04-13T12:13:10.492Z,14.50
2017-04-13T12:14:09.600Z,14.60
2017-04-13T12:15:09.467Z,14.60
2017-04-13T12:16:08.576Z,14.60
2017-04-13T12:17:07.717Z,14.70
2017-04-13T12:18:06.832Z,14.70
2017-04-13T12:19:05.980Z,14.70
2017-04-13T12:20:05.089Z,14.70
2017-04-13T12:21:04.196Z,14.80
2017-04-13T12:22:03.312Z,14.80
2017-04-13T12:23:02.446Z,14.90
2017-04-13T12:24:01.577Z,14.90
2017-04-13T12:25:01.459Z,14.90
2017-04-13T12:26:00.582Z,15.00
2017-04-13T12:26:59.692Z,15.00
2017-04-13T12:27:58.849Z,15.00
2017-04-13T12:28:57.960Z,15.00
2017-04-13T12:29:57.080Z,15.00
2017-04-13T12:30:56.197Z,15.00
2017-04-13T12:31:56.069Z,15.00
2017-04-13T12:32:55.172Z,14.90
2017-04-13T12:33:54.301Z,14.80
2017-04-13T12:34:53.464Z,14.80
2017-04-13T12:35:52.584Z,14.80
2017-04-13T12:36:51.696Z,14.80
2017-04-13T12:37:50.800Z,14.70
2017-04-13T12:38:50.248Z,14.70
2017-04-13T12:39:49.568Z,14.60
2017-04-13T12:40:48.680Z,14.60
2017-04-13T12:41:48.553Z,14.50
2017-04-13T12:42:47.672Z,14.50
2017-04-13T12:43:47.596Z,14.30